Time;durP1;ratioP1;P1;durP2;ratioP2;P2;SDS_P1;SDS_P2;PMS_P1;PMS_P2;Temp;Humidity;BMP_temperature;BMP_pressure;BME280_temperature;BME280_humidity;BME280_pressure;Samples;Min_cycle;Max_cycle;Signal;HPM_P1;HPM_P2
2023/03/11 00:00:12;;;;;;;;;;;;;;;10.68;57.58;96034.66;4248687;27;5655;-66
2023/03/11 00:02:15;;;;;;;;;;;;;;;10.65;57.58;96037.72;4245993;27;5646;-66
2023/03/11 00:04:18;;;;;;;;;;;;;;;10.58;57.86;96034.28;4241992;27;5816;-66
2023/03/11 00:06:21;;;;;;;;;;;;;;;10.52;57.81;96029.84;4236289;27;5871;-66
2023/03/11 00:08:25;;;;;;;;;;;;;;;10.45;57.80;96040.47;4243332;27;5703;-67
2023/03/11 00:10:31;;;;;;;;;;;;;;;10.47;58.05;96039.22;4250014;27;5658;-66
2023/03/11 00:12:50;;;;;;;;;;;;;;;10.49;57.74;96031.06;4250899;27;5688;-66
2023/03/11 00:14:53;;;;;;;;;;;;;;;10.49;57.65;96031.06;4240054;27;5646;-66
2023/03/11 00:16:56;;;;;;;;;;;;;;;10.48;57.96;96030.28;4235683;28;5732;-67
2023/03/11 00:18:59;;;;;;;;;;;;;;;10.48;57.69;96035.56;4243895;27;5649;-66
2023/03/11 00:21:02;;;;;;;;;;;;;;;10.52;57.72;96017.44;4249577;27;5641;-66
2023/03/11 00:23:07;;;;;;;;;;;;;;;10.50;57.66;96012.38;4243387;27;5834;-66
2023/03/11 00:25:12;;;;;;;;;;;;;;;10.54;57.84;95999.56;4248411;27;5628;-66
2023/03/11 00:27:15;;;;;;;;;;;;;;;10.53;58.03;96005.84;4241640;27;5834;-66
2023/03/11 00:29:18;;;;;;;;;;;;;;;10.54;57.80;96011.97;4251786;27;5727;-66
2023/03/11 00:31:21;;;;;;;;;;;;;;;10.57;57.92;96016.81;4236296;27;5669;-66
2023/03/11 00:33:24;;;;;;;;;;;;;;;10.52;57.72;96009.50;4233081;27;5698;-66
2023/03/11 00:35:30;;;;;;;;;;;;;;;10.56;58.12;96016.00;4235011;28;5654;-66
2023/03/11 00:37:33;;;;;;;;;;;;;;;10.55;57.54;96016.22;4244890;27;5640;-66
2023/03/11 00:39:36;;;;;;;;;;;;;;;10.52;58.03;96017.44;4251116;27;5706;-66
2023/03/11 00:41:40;;;;;;;;;;;;;;;10.48;58.14;96024.97;4250898;27;5804;-66
2023/03/11 00:43:43;;;;;;;;;;;;;;;10.48;58.18;96030.28;4251091;27;5616;-66
2023/03/11 00:45:46;;;;;;;;;;;;;;;10.44;57.99;96042.28;4246538;27;5721;-66
2023/03/11 00:47:49;;;;;;;;;;;;;;;10.41;58.27;96040.03;4247959;27;5894;-66
2023/03/11 00:49:52;;;;;;;;;;;;;;;10.44;58.21;96029.06;4250952;27;5636;-66
2023/03/11 00:51:55;;;;;;;;;;;;;;;10.44;58.34;96033.56;4242213;27;5637;-66
2023/03/11 00:54:00;;;;;;;;;;;;;;;10.42;58.02;96035.59;4247109;27;5730;-67
2023/03/11 00:56:07;;;;;;;;;;;;;;;10.43;58.22;96024.81;4247913;27;5638;-67
2023/03/11 00:58:12;;;;;;;;;;;;;;;10.43;58.38;96027.47;4242644;27;5605;-66
2023/03/11 01:00:17;;;;;;;;;;;;;;;10.45;58.39;96027.25;4249483;27;5608;-67
2023/03/11 01:02:20;;;;;;;;;;;;;;;10.44;57.97;96023.78;4245359;27;5665;-66
2023/03/11 01:04:23;;;;;;;;;;;;;;;10.46;58.10;96013.00;4250009;27;5772;-66
2023/03/11 01:06:26;;;;;;;;;;;;;;;10.47;58.32;96009.34;4250451;27;5627;-65
2023/03/11 01:08:41;;;;;;;;;;;;;;;10.45;58.10;96004.28;4244768;27;5604;-65
2023/03/11 01:10:44;;;;;;;;;;;;;;;10.41;57.92;96007.53;4249551;27;5715;-65
2023/03/11 01:12:47;;;;;;;;;;;;;;;10.44;58.32;96013.22;4237603;27;5641;-64
2023/03/11 01:14:52;;;;;;;;;;;;;;;10.50;58.04;96012.38;4250652;27;5710;-65
2023/03/11 01:16:55;;;;;;;;;;;;;;;10.53;57.88;96015.59;4248333;27;5679;-65
2023/03/11 01:18:58;;;;;;;;;;;;;;;10.49;57.86;96013.38;4250191;27;5771;-65
2023/03/11 01:21:01;;;;;;;;;;;;;;;10.50;58.17;96008.91;4250701;27;5892;-66
2023/03/11 01:23:04;;;;;;;;;;;;;;;10.46;58.17;96016.47;4251447;27;6431;-65
2023/03/11 01:25:09;;;;;;;;;;;;;;;10.38;58.24;96014.06;4250143;27;5748;-65
2023/03/11 01:27:12;;;;;;;;;;;;;;;10.42;58.14;96025.03;4244292;27;5586;-65
2023/03/11 01:29:15;;;;;;;;;;;;;;;10.44;57.99;96015.88;4248007;27;5628;-65
2023/03/11 01:31:19;;;;;;;;;;;;;;;10.43;58.24;96006.31;4244846;27;5715;-65
2023/03/11 01:33:22;;;;;;;;;;;;;;;10.43;58.14;95998.41;4243852;27;6327;-66
2023/03/11 01:35:26;;;;;;;;;;;;;;;10.46;58.22;95989.22;4245629;27;5649;-66
2023/03/11 01:37:29;;;;;;;;;;;;;;;10.49;58.35;95992.25;4242854;27;5840;-67
2023/03/11 01:39:32;;;;;;;;;;;;;;;10.53;58.47;95983.88;4249150;27;5834;-67
2023/03/11 01:41:35;;;;;;;;;;;;;;;10.56;57.98;95978.19;4250456;27;5795;-65
2023/03/11 01:43:49;;;;;;;;;;;;;;;10.54;58.35;95970.50;4251342;27;5604;-65
2023/03/11 01:46:13;;;;;;;;;;;;;;;10.53;58.05;95968.03;4242368;27;5736;-66
2023/03/11 01:48:17;;;;;;;;;;;;;;;10.57;58.13;95959.47;4249511;27;6730;-66
2023/03/11 01:50:21;;;;;;;;;;;;;;;10.58;58.35;95952.34;4249759;27;5803;-66
2023/03/11 01:52:23;;;;;;;;;;;;;;;10.61;58.22;95944.00;4249409;27;5695;-65
2023/03/11 01:54:31;;;;;;;;;;;;;;;10.59;58.45;95944.22;4254419;27;5661;-65
2023/03/11 01:56:35;;;;;;;;;;;;;;;10.60;58.10;95935.25;4239937;27;5652;-64
2023/03/11 01:58:43;;;;;;;;;;;;;;;10.60;58.01;95924.69;4252745;27;5627;-66
2023/03/11 02:00:47;;;;;;;;;;;;;;;10.59;58.54;95916.97;4248724;27;5645;-66
2023/03/11 02:02:52;;;;;;;;;;;;;;;10.61;58.19;95925.50;4252978;27;5653;-66
2023/03/11 02:04:57;;;;;;;;;;;;;;;10.60;58.03;95916.75;4254386;27;5648;-65
2023/03/11 02:07:01;;;;;;;;;;;;;;;10.61;58.10;95928.13;4242148;27;5620;-66
2023/03/11 02:09:04;;;;;;;;;;;;;;;10.59;58.54;95936.28;4253902;27;5764;-66
2023/03/11 02:11:09;;;;;;;;;;;;;;;10.63;58.45;95941.94;4251126;27;5632;-66
2023/03/11 02:13:12;;;;;;;;;;;;;;;10.66;58.51;95938.91;4253537;27;5605;-66
2023/03/11 02:15:15;;;;;;;;;;;;;;;10.65;58.26;95930.16;4252087;27;5695;-65
2023/03/11 02:17:18;;;;;;;;;;;;;;;10.69;58.33;95943.75;4249089;27;5735;-66
2023/03/11 02:19:30;;;;;;;;;;;;;;;10.69;58.20;95935.81;4240283;27;5632;-66
2023/03/11 02:21:35;;;;;;;;;;;;;;;10.71;58.25;95939.06;4248335;27;5876;-66
2023/03/11 02:23:45;;;;;;;;;;;;;;;10.67;58.60;95937.88;4252630;27;5667;-66
2023/03/11 02:25:53;;;;;;;;;;;;;;;10.68;58.30;95918.34;4244574;27;5890;-66
2023/03/11 02:27:59;;;;;;;;;;;;;;;10.69;58.43;95899.63;4248257;27;6326;-65
2023/03/11 02:30:03;;;;;;;;;;;;;;;10.74;58.55;95891.84;4245317;27;5628;-66
2023/03/11 02:32:10;;;;;;;;;;;;;;;10.74;58.41;95899.75;4254013;27;5852;-66
2023/03/11 02:34:18;;;;;;;;;;;;;;;10.71;58.67;95889.63;4247440;27;5646;-65
2023/03/11 02:36:32;;;;;;;;;;;;;;;10.72;58.69;95903.66;4251612;27;5606;-65
2023/03/11 02:38:35;;;;;;;;;;;;;;;10.75;58.75;95897.94;4244798;27;5653;-66
2023/03/11 02:40:47;;;;;;;;;;;;;;;10.72;58.81;95898.38;4237949;27;5833;-66
2023/03/11 02:42:51;;;;;;;;;;;;;;;10.68;58.80;95897.19;4242355;27;5649;-65
2023/03/11 02:45:00;;;;;;;;;;;;;;;10.68;58.55;95907.75;4253538;27;5624;-66
2023/03/11 02:47:03;;;;;;;;;;;;;;;10.71;58.81;95923.19;4253559;27;6305;-66
2023/03/11 02:49:08;;;;;;;;;;;;;;;10.69;58.62;95926.06;4245018;27;5835;-65
2023/03/11 02:51:11;;;;;;;;;;;;;;;10.71;58.62;95925.84;4253565;27;6453;-66
2023/03/11 02:53:14;;;;;;;;;;;;;;;10.67;58.63;95922.00;4245111;27;5691;-65
2023/03/11 02:55:19;;;;;;;;;;;;;;;10.68;58.93;95905.13;4246250;27;5645;-66
2023/03/11 02:57:21;;;;;;;;;;;;;;;10.72;58.77;95901.00;4236470;28;5653;-66
2023/03/11 02:59:24;;;;;;;;;;;;;;;10.71;58.82;95884.34;4253008;27;5631;-65
2023/03/11 03:01:29;;;;;;;;;;;;;;;10.71;58.72;95871.13;4245499;27;5657;-66
2023/03/11 03:03:31;;;;;;;;;;;;;;;10.74;58.88;95860.13;4245414;27;5651;-66
2023/03/11 03:05:34;;;;;;;;;;;;;;;10.76;58.53;95854.63;4243962;27;5761;-65
2023/03/11 03:07:38;;;;;;;;;;;;;;;10.76;58.66;95867.84;4246205;27;5930;-66
2023/03/11 03:09:40;;;;;;;;;;;;;;;10.72;58.96;95858.72;4253417;27;6557;-65
2023/03/11 03:11:43;;;;;;;;;;;;;;;10.74;59.00;95860.13;4243064;27;5681;-65
2023/03/11 03:13:46;;;;;;;;;;;;;;;10.75;58.70;95845.06;4236338;28;5795;-67
2023/03/11 03:15:49;;;;;;;;;;;;;;;10.75;58.98;95831.84;4247377;27;5633;-65
2023/03/11 03:17:53;;;;;;;;;;;;;;;10.77;59.04;95853.59;4241278;27;5645;-65
2023/03/11 03:19:56;;;;;;;;;;;;;;;10.76;58.81;95860.72;4237488;27;5872;-66
2023/03/11 03:21:59;;;;;;;;;;;;;;;10.73;58.85;95858.50;4240381;27;5624;-65
2023/03/11 03:24:02;;;;;;;;;;;;;;;10.69;59.18;95844.09;4253136;27;5612;-65
2023/03/11 03:26:06;;;;;;;;;;;;;;;10.70;59.14;95842.28;4248059;27;5841;-65
2023/03/11 03:28:09;;;;;;;;;;;;;;;10.75;58.75;95839.78;4244173;27;5630;-65
2023/03/11 03:30:13;;;;;;;;;;;;;;;10.75;58.82;95823.91;4235893;27;5790;-65
2023/03/11 03:32:16;;;;;;;;;;;;;;;10.74;59.22;95806.44;4242564;27;5620;-68
2023/03/11 03:34:20;;;;;;;;;;;;;;;10.75;58.97;95805.41;4252816;27;5623;-66
2023/03/11 03:36:23;;;;;;;;;;;;;;;10.77;59.06;95800.72;4244463;27;5768;-65
2023/03/11 03:38:26;;;;;;;;;;;;;;;10.76;59.05;95792.00;4252804;27;5616;-66
2023/03/11 03:40:29;;;;;;;;;;;;;;;10.73;58.98;95794.25;4251379;27;5632;-65
2023/03/11 03:42:32;;;;;;;;;;;;;;;10.74;59.07;95806.44;4252434;27;5632;-65
2023/03/11 03:44:35;;;;;;;;;;;;;;;10.69;59.12;95814.22;4251515;27;5786;-65
2023/03/11 03:46:38;;;;;;;;;;;;;;;10.68;59.45;95799.41;4249941;27;5624;-65
2023/03/11 03:48:41;;;;;;;;;;;;;;;10.69;58.90;95791.25;4251914;27;5719;-64
2023/03/11 03:50:45;;;;;;;;;;;;;;;10.72;59.06;95796.09;4251184;27;5383;-65
2023/03/11 03:52:49;;;;;;;;;;;;;;;10.74;59.13;95812.53;4247149;27;7382;-65
2023/03/11 03:54:52;;;;;;;;;;;;;;;10.73;59.35;95812.75;4246167;27;5624;-64
2023/03/11 03:56:55;;;;;;;;;;;;;;;10.75;59.20;95797.47;4249999;27;5589;-64
2023/03/11 03:58:58;;;;;;;;;;;;;;;10.74;59.31;95788.75;4241088;27;5653;-64
2023/03/11 04:01:01;;;;;;;;;;;;;;;10.73;59.15;95788.97;4240779;27;5904;-65
2023/03/11 04:03:04;;;;;;;;;;;;;;;10.73;59.31;95794.25;4252911;27;5640;-65
2023/03/11 04:05:08;;;;;;;;;;;;;;;10.72;59.31;95809.31;4239886;27;5645;-65
2023/03/11 04:07:12;;;;;;;;;;;;;;;10.71;59.28;95802.41;4240637;27;5744;-64
2023/03/11 04:09:15;;;;;;;;;;;;;;;10.71;59.36;95791.03;4251275;27;5628;-65
2023/03/11 04:11:19;;;;;;;;;;;;;;;10.73;59.18;95763.34;4249359;27;5788;-65
2023/03/11 04:13:21;;;;;;;;;;;;;;;10.79;58.98;95737.88;4244590;27;5740;-64
2023/03/11 04:15:24;;;;;;;;;;;;;;;10.79;59.21;95749.25;4241077;27;5810;-65
2023/03/11 04:17:27;;;;;;;;;;;;;;;10.78;59.19;95786.50;4246194;27;5834;-65
2023/03/11 04:19:30;;;;;;;;;;;;;;;10.75;59.16;95800.13;4251256;27;5823;-65
2023/03/11 04:21:33;;;;;;;;;;;;;;;10.72;59.47;95804.00;4240428;27;5649;-64
2023/03/11 04:23:38;;;;;;;;;;;;;;;10.72;59.24;95809.31;4248495;27;5631;-65
2023/03/11 04:25:40;;;;;;;;;;;;;;;10.74;59.13;95817.81;4251013;27;5646;-65
2023/03/11 04:27:44;;;;;;;;;;;;;;;10.75;59.51;95803.56;4251480;27;5628;-65
2023/03/11 04:29:47;;;;;;;;;;;;;;;10.74;59.41;95801.16;4251597;27;5640;-65
2023/03/11 04:31:50;;;;;;;;;;;;;;;10.71;59.51;95804.22;4245937;27;5653;-65
2023/03/11 04:33:53;;;;;;;;;;;;;;;10.70;59.36;95806.06;4235048;27;5649;-65
2023/03/11 04:35:56;;;;;;;;;;;;;;;10.71;59.43;95806.88;4245045;27;5675;-65
2023/03/11 04:38:00;;;;;;;;;;;;;;;10.71;59.61;95791.03;4249232;27;5838;-65
2023/03/11 04:40:05;;;;;;;;;;;;;;;10.73;59.41;95771.25;4250436;27;5636;-64
2023/03/11 04:42:08;;;;;;;;;;;;;;;10.72;59.68;95779.41;4252207;27;5720;-64
2023/03/11 04:44:11;;;;;;;;;;;;;;;10.71;59.35;95799.75;4246827;27;5645;-65
2023/03/11 04:46:14;;;;;;;;;;;;;;;10.71;59.63;95812.16;4235697;27;5644;-65
2023/03/11 04:48:17;;;;;;;;;;;;;;;10.69;59.24;95807.09;4249388;27;5633;-65
2023/03/11 04:50:20;;;;;;;;;;;;;;;10.72;59.72;95808.50;4251213;27;5788;-65
2023/03/11 04:52:23;;;;;;;;;;;;;;;10.71;59.42;95791.03;4239635;27;5623;-65
2023/03/11 04:54:26;;;;;;;;;;;;;;;10.70;59.46;95779.63;4251183;27;5783;-65
2023/03/11 04:56:30;;;;;;;;;;;;;;;10.70;59.38;95800.78;4243249;27;5657;-65
2023/03/11 04:58:33;;;;;;;;;;;;;;;10.72;59.37;95797.91;4235783;27;5641;-65
2023/03/11 05:00:36;;;;;;;;;;;;;;;10.72;59.30;95795.28;4247318;27;5657;-65
2023/03/11 05:02:40;;;;;;;;;;;;;;;10.72;59.57;95792.63;4250966;27;5631;-64
2023/03/11 05:04:44;;;;;;;;;;;;;;;10.71;59.42;95810.31;4251128;27;5727;-65
2023/03/11 05:06:49;;;;;;;;;;;;;;;10.69;59.41;95812.38;4250723;27;5632;-65
2023/03/11 05:08:52;;;;;;;;;;;;;;;10.68;59.41;95802.03;4250180;27;5711;-65
2023/03/11 05:10:55;;;;;;;;;;;;;;;10.70;59.40;95781.47;4249651;27;5719;-65
2023/03/11 05:12:59;;;;;;;;;;;;;;;10.71;59.64;95791.03;4250764;27;5667;-65
2023/03/11 05:15:02;;;;;;;;;;;;;;;10.70;59.74;95802.63;4250457;27;5628;-64
2023/03/11 05:17:05;;;;;;;;;;;;;;;10.71;59.67;95798.94;4251481;27;5620;-65
2023/03/11 05:21:25;;;;;;;;;;;;;;;10.74;59.77;95798.50;4248407;27;5605;-64
2023/03/11 05:23:28;;;;;;;;;;;;;;;10.74;59.49;95795.88;4249020;27;5988;-67
2023/03/11 05:25:31;;;;;;;;;;;;;;;10.73;59.62;95788.97;4243618;27;5624;-64
2023/03/11 05:27:34;;;;;;;;;;;;;;;10.77;59.56;95800.72;4235944;27;5736;-65
2023/03/11 05:29:38;;;;;;;;;;;;;;;10.76;59.36;95796.47;4235169;27;5720;-66
2023/03/11 05:31:41;;;;;;;;;;;;;;;10.79;59.70;95793.38;4234224;28;5637;-65
2023/03/11 05:33:44;;;;;;;;;;;;;;;10.79;59.83;95793.38;4234608;28;5653;-66
2023/03/11 05:35:47;;;;;;;;;;;;;;;10.79;59.55;95798.69;4230869;28;5645;-65
2023/03/11 05:37:51;;;;;;;;;;;;;;;10.80;59.57;95810.88;4216524;28;5659;-65
2023/03/11 05:39:55;;;;;;;;;;;;;;;10.77;59.64;95809.47;4225832;28;5786;-65
2023/03/11 05:41:58;;;;;;;;;;;;;;;10.77;59.71;95808.66;4217376;28;5818;-66
2023/03/11 05:44:01;;;;;;;;;;;;;;;10.75;59.97;95818.63;4230233;28;5637;-65
2023/03/11 05:46:05;;;;;;;;;;;;;;;10.70;59.82;95811.34;4225464;28;5741;-63
2023/03/11 05:48:08;;;;;;;;;;;;;;;10.68;59.96;95807.31;4228082;28;5667;-65
2023/03/11 05:50:12;;;;;;;;;;;;;;;10.66;59.92;95810.19;4231730;28;5672;-65
2023/03/11 05:52:15;;;;;;;;;;;;;;;10.63;59.81;95805.31;4234500;28;5625;-65
2023/03/11 05:54:18;;;;;;;;;;;;;;;10.63;60.08;95809.78;4225819;28;5805;-65
2023/03/11 05:56:23;;;;;;;;;;;;;;;10.61;59.92;95817.13;4233916;28;5629;-65
2023/03/11 05:58:26;;;;;;;;;;;;;;;10.61;60.11;95819.78;4226194;28;5674;-65
2023/03/11 06:00:29;;;;;;;;;;;;;;;10.64;59.96;95819.34;4232790;28;6055;-65
2023/03/11 06:02:33;;;;;;;;;;;;;;;10.67;59.93;95814.44;4232877;28;5789;-65
2023/03/11 06:04:36;;;;;;;;;;;;;;;10.72;59.88;95825.16;4233080;28;5641;-64
2023/03/11 06:06:40;;;;;;;;;;;;;;;10.73;59.91;95825.97;4224358;28;5848;-65
2023/03/11 06:08:48;;;;;;;;;;;;;;;10.70;59.69;95836.97;4226838;28;5686;-65
2023/03/11 06:10:51;;;;;;;;;;;;;;;10.70;59.89;95834.34;4233897;28;5645;-65
2023/03/11 06:12:54;;;;;;;;;;;;;;;10.69;59.96;95832.72;4230797;28;6338;-65
2023/03/11 06:14:57;;;;;;;;;;;;;;;10.67;60.08;95840.06;4233027;28;5661;-65
2023/03/11 06:17:00;;;;;;;;;;;;;;;10.66;60.06;95844.56;4232778;28;5765;-66
2023/03/11 06:19:04;;;;;;;;;;;;;;;10.66;59.83;95846.38;4233158;28;5713;-66
2023/03/11 06:21:08;;;;;;;;;;;;;;;10.69;60.13;95845.94;4233549;28;5765;-65
2023/03/11 06:23:11;;;;;;;;;;;;;;;10.70;59.85;95840.44;4233027;28;5653;-65
2023/03/11 06:25:14;;;;;;;;;;;;;;;10.74;59.69;95832.88;4232959;28;5661;-65
2023/03/11 06:27:16;;;;;;;;;;;;;;;10.75;59.80;95834.47;4232745;28;5692;-65
2023/03/11 06:29:20;;;;;;;;;;;;;;;10.78;59.95;95834.06;4221822;28;5880;-65
2023/03/11 06:31:25;;;;;;;;;;;;;;;10.78;60.12;95831.44;4235442;28;5673;-65
2023/03/11 06:33:28;;;;;;;;;;;;;;;10.81;60.14;95833.63;4236287;28;6378;-65
2023/03/11 06:35:33;;;;;;;;;;;;;;;10.80;60.22;95837.31;4236484;28;5672;-65
2023/03/11 06:37:36;;;;;;;;;;;;;;;10.83;60.15;95833.41;4234746;28;5649;-65
2023/03/11 06:39:39;;;;;;;;;;;;;;;10.82;60.00;95835.25;4229762;28;5642;-65
2023/03/11 06:41:42;;;;;;;;;;;;;;;10.77;60.08;95830.63;4235550;28;5638;-65
2023/03/11 06:43:45;;;;;;;;;;;;;;;10.78;60.38;95834.06;4236240;28;5728;-65
2023/03/11 06:45:48;;;;;;;;;;;;;;;10.77;60.28;95840.38;4233797;28;5863;-66
2023/03/11 06:47:51;;;;;;;;;;;;;;;10.77;60.24;95829.81;4234975;28;5736;-66
2023/03/11 06:49:54;;;;;;;;;;;;;;;10.73;60.25;95829.41;4235043;28;5689;-65
2023/03/11 06:51:58;;;;;;;;;;;;;;;10.70;60.20;95827.22;4235468;28;5904;-65
2023/03/11 06:54:01;;;;;;;;;;;;;;;10.73;60.30;95833.91;4236176;28;5766;-67
2023/03/11 06:56:06;;;;;;;;;;;;;;;10.74;60.44;95828.38;4235920;28;5649;-65
2023/03/11 06:58:09;;;;;;;;;;;;;;;10.72;60.60;95834.94;4235066;28;5809;-65
2023/03/11 07:00:13;;;;;;;;;;;;;;;10.70;60.45;95843.06;4236018;28;5633;-65
2023/03/11 07:02:16;;;;;;;;;;;;;;;10.74;60.74;95843.44;4231968;28;5881;-65
2023/03/11 07:04:19;;;;;;;;;;;;;;;10.74;60.35;95854.03;4235943;28;5797;-66
2023/03/11 07:06:25;;;;;;;;;;;;;;;10.67;60.51;95853.28;4231662;28;5800;-65
2023/03/11 07:08:30;;;;;;;;;;;;;;;10.69;60.51;95856.50;4235973;28;5641;-66
2023/03/11 07:10:33;;;;;;;;;;;;;;;10.68;60.49;95852.25;4235787;28;5657;-65
2023/03/11 07:12:36;;;;;;;;;;;;;;;10.67;60.53;95848.00;4231868;28;5653;-65
2023/03/11 07:14:39;;;;;;;;;;;;;;;10.61;60.71;95843.56;4235252;27;5732;-66
2023/03/11 07:16:42;;;;;;;;;;;;;;;10.60;60.71;95857.81;4234971;28;5653;-65
2023/03/11 07:18:47;;;;;;;;;;;;;;;10.57;60.84;95856.41;4235712;28;5637;-65
2023/03/11 07:20:49;;;;;;;;;;;;;;;10.58;60.66;95849.28;4235928;28;5650;-65
2023/03/11 07:22:52;;;;;;;;;;;;;;;10.59;61.02;95862.28;4224857;28;5662;-66
2023/03/11 07:24:57;;;;;;;;;;;;;;;10.66;60.98;95857.75;4227771;28;6332;-66
2023/03/11 07:27:00;;;;;;;;;;;;;;;10.67;60.69;95871.78;4227188;28;5645;-66
2023/03/11 07:29:03;;;;;;;;;;;;;;;10.67;60.68;95871.78;4234357;28;5634;-66
2023/03/11 07:31:10;;;;;;;;;;;;;;;10.68;60.90;95874.22;4230612;28;5644;-66
2023/03/11 07:33:12;;;;;;;;;;;;;;;10.68;60.91;95873.41;4220921;28;5679;-66
2023/03/11 07:35:15;;;;;;;;;;;;;;;10.67;60.85;95875.25;4235153;28;5657;-66
2023/03/11 07:37:19;;;;;;;;;;;;;;;10.67;60.82;95875.25;4234948;28;5650;-66
2023/03/11 07:39:22;;;;;;;;;;;;;;;10.65;61.20;95879.13;4235719;27;5653;-66
2023/03/11 07:41:27;;;;;;;;;;;;;;;10.65;61.25;95892.34;4235010;28;6448;-65
2023/03/11 07:43:30;;;;;;;;;;;;;;;10.64;61.20;95880.13;4226426;28;5606;-66
2023/03/11 07:45:33;;;;;;;;;;;;;;;10.66;60.90;95881.56;4226942;28;5099;-66
2023/03/11 07:47:36;;;;;;;;;;;;;;;10.66;60.84;95876.25;4235589;27;7717;-66
2023/03/11 07:49:39;;;;;;;;;;;;;;;10.67;60.87;95880.53;4234769;28;5642;-65
2023/03/11 07:51:42;;;;;;;;;;;;;;;10.68;60.98;95886.63;4228625;28;5841;-65
2023/03/11 07:53:46;;;;;;;;;;;;;;;10.68;61.07;95889.25;4235250;28;5630;-66
2023/03/11 07:55:49;;;;;;;;;;;;;;;10.70;60.86;95880.09;4235865;28;5757;-65
2023/03/11 07:57:53;;;;;;;;;;;;;;;10.75;61.17;95879.44;4235442;28;5664;-67
2023/03/11 07:59:56;;;;;;;;;;;;;;;10.76;60.87;95883.72;4233265;28;5861;-65
2023/03/11 08:01:59;;;;;;;;;;;;;;;10.76;60.91;95881.06;4234655;28;5092;-64
2023/03/11 08:04:04;;;;;;;;;;;;;;;10.74;60.92;95891.03;4230817;28;5661;-65
2023/03/11 08:06:12;;;;;;;;;;;;;;;10.73;61.04;95886.78;4235541;28;5649;-66
2023/03/11 08:08:15;;;;;;;;;;;;;;;10.73;61.19;95884.94;4235056;28;5836;-67
2023/03/11 08:10:18;;;;;;;;;;;;;;;10.76;61.40;95894.28;4234717;28;5791;-65
2023/03/11 08:12:21;;;;;;;;;;;;;;;10.79;61.07;95897.31;4234600;28;5641;-66
2023/03/11 08:14:25;;;;;;;;;;;;;;;10.79;61.12;95910.53;4234831;28;5729;-65
2023/03/11 08:16:29;;;;;;;;;;;;;;;10.81;61.35;95915.59;4234259;28;5645;-65
2023/03/11 08:18:33;;;;;;;;;;;;;;;10.84;60.79;95922.28;4233998;28;5653;-66
2023/03/11 08:20:37;;;;;;;;;;;;;;;10.82;61.27;95941.00;4231100;28;5709;-66
2023/03/11 08:22:40;;;;;;;;;;;;;;;10.80;61.29;95948.34;4234370;28;6344;-66
2023/03/11 08:24:58;;;;;;;;;;;;;;;10.77;61.10;95960.16;4234283;28;5646;-66
2023/03/11 08:27:01;;;;;;;;;;;;;;;10.76;61.16;95968.31;4234255;28;5759;-66
2023/03/11 08:29:04;;;;;;;;;;;;;;;10.77;61.49;95965.44;4234144;28;5649;-66
2023/03/11 08:31:14;;;;;;;;;;;;;;;10.79;61.40;95973.16;4229133;28;5677;-66
2023/03/11 08:33:17;;;;;;;;;;;;;;;10.78;61.64;95967.06;4234581;27;5779;-66
2023/03/11 08:35:20;;;;;;;;;;;;;;;10.84;61.25;95969.88;4234328;28;5644;-67
2023/03/11 08:37:23;;;;;;;;;;;;;;;10.90;61.56;95984.88;4233978;28;5768;-66
2023/03/11 08:39:26;;;;;;;;;;;;;;;10.93;61.33;95985.25;4223726;28;5700;-66
2023/03/11 08:41:29;;;;;;;;;;;;;;;10.93;61.30;95982.63;4226752;28;5696;-66
2023/03/11 08:43:31;;;;;;;;;;;;;;;10.94;61.46;95989.53;4226485;28;5087;-66
2023/03/11 08:45:34;;;;;;;;;;;;;;;10.91;61.48;95987.31;4218412;28;5683;-66
2023/03/11 08:47:39;;;;;;;;;;;;;;;10.93;61.38;95990.53;4225277;27;5902;-66
2023/03/11 08:49:42;;;;;;;;;;;;;;;10.94;61.36;95986.88;4218160;28;5687;-66
2023/03/11 08:51:46;;;;;;;;;;;;;;;10.97;61.63;95988.28;4228360;28;5716;-66
2023/03/11 08:53:50;;;;;;;;;;;;;;;11.01;61.08;95987.66;4228809;28;5930;-66
2023/03/11 08:55:53;;;;;;;;;;;;;;;11.05;61.34;95988.81;4225765;28;5667;-66
2023/03/11 08:57:56;;;;;;;;;;;;;;;11.09;61.00;95990.00;4221252;28;5756;-67
2023/03/11 08:59:59;;;;;;;;;;;;;;;11.11;61.00;95996.94;4226187;27;5665;-65
2023/03/11 09:02:02;;;;;;;;;;;;;;;11.12;61.22;96002.00;4235098;28;5653;-65
2023/03/11 09:04:06;;;;;;;;;;;;;;;11.13;60.95;96010.75;4221234;27;5668;-65
2023/03/11 09:06:14;;;;;;;;;;;;;;;11.10;61.08;96009.34;4217588;28;7378;-65
2023/03/11 09:08:17;;;;;;;;;;;;;;;11.04;61.45;96018.94;4226199;28;6169;-65
2023/03/11 09:10:20;;;;;;;;;;;;;;;11.04;61.73;96026.88;4218149;28;5670;-66
2023/03/11 09:12:23;;;;;;;;;;;;;;;11.04;61.70;96034.81;4217760;28;5670;-66
2023/03/11 09:14:26;;;;;;;;;;;;;;;11.04;61.49;96029.53;4224697;28;5809;-65
2023/03/11 09:16:29;;;;;;;;;;;;;;;11.01;61.41;96032.59;4231392;28;5655;-66
2023/03/11 09:18:32;;;;;;;;;;;;;;;11.00;61.37;96038.94;4223864;28;5784;-65
2023/03/11 09:20:39;;;;;;;;;;;;;;;11.01;61.42;96047.66;4228202;28;5652;-66
2023/03/11 09:22:42;;;;;;;;;;;;;;;11.04;61.63;96045.41;4224200;28;5658;-66
2023/03/11 09:24:45;;;;;;;;;;;;;;;11.02;61.51;96051.94;4217370;28;6095;-66
2023/03/11 09:26:47;;;;;;;;;;;;;;;10.99;61.47;96049.72;4226743;28;5747;-67
2023/03/11 09:28:50;;;;;;;;;;;;;;;10.95;61.80;96051.97;4232700;28;5646;-66
2023/03/11 09:30:53;;;;;;;;;;;;;;;10.95;61.66;96051.16;4225076;28;5864;-65
2023/03/11 09:32:56;;;;;;;;;;;;;;;10.92;61.70;96051.59;4218271;28;5653;-67
2023/03/11 09:34:59;;;;;;;;;;;;;;;10.93;61.83;96059.31;4220753;28;5673;-66
2023/03/11 09:37:04;;;;;;;;;;;;;;;10.93;61.88;96048.72;4220774;28;5665;-66
2023/03/11 09:39:06;;;;;;;;;;;;;;;10.91;61.50;96060.53;4227290;28;5835;-66
2023/03/11 09:41:22;;;;;;;;;;;;;;;10.90;61.56;96059.75;4223915;28;5786;-65
2023/03/11 09:43:39;;;;;;;;;;;;;;;10.93;61.75;96064.59;4230854;28;5717;-65
2023/03/11 09:45:47;;;;;;;;;;;;;;;10.94;61.59;96062.75;4231415;28;5654;-66
2023/03/11 09:48:04;;;;;;;;;;;;;;;10.93;61.60;96069.06;4216787;28;5665;-67
2023/03/11 09:50:30;;;;;;;;;;;;;;;10.91;61.85;96073.78;4226803;28;5665;-68
2023/03/11 09:52:42;;;;;;;;;;;;;;;10.92;61.68;96064.81;4212265;28;5833;-69
2023/03/11 09:54:48;;;;;;;;;;;;;;;10.97;61.67;96072.91;4223588;28;5753;-69
2023/03/11 09:56:51;;;;;;;;;;;;;;;10.94;61.33;96071.50;4215476;28;5910;-68
2023/03/11 09:59:00;;;;;;;;;;;;;;;10.95;61.72;96077.59;4227166;28;6464;-67
2023/03/11 10:01:03;;;;;;;;;;;;;;;10.97;61.57;96075.53;4227608;28;5766;-66
2023/03/11 10:03:14;;;;;;;;;;;;;;;11.00;61.51;96073.31;4223499;28;5742;-65
2023/03/11 10:05:21;;;;;;;;;;;;;;;10.98;61.38;96077.97;4219229;28;5655;-67
2023/03/11 10:07:32;;;;;;;;;;;;;;;10.95;61.47;96078.41;4219576;28;6499;-67
2023/03/11 10:09:41;;;;;;;;;;;;;;;10.98;61.41;96077.16;4228107;28;6495;-68
2023/03/11 10:11:57;;;;;;;;;;;;;;;10.96;61.14;96072.09;4220774;28;5667;-66
2023/03/11 10:14:12;;;;;;;;;;;;;;;10.91;61.11;96066.66;4222901;28;5773;-68
2023/03/11 10:16:25;;;;;;;;;;;;;;;10.94;61.04;96070.69;4226757;28;5710;-68
2023/03/11 10:18:43;;;;;;;;;;;;;;;10.94;60.99;96073.34;4227148;28;5748;-64
2023/03/11 10:20:56;;;;;;;;;;;;;;;10.91;61.37;96085.16;4221036;28;5816;-64
2023/03/11 10:23:12;;;;;;;;;;;;;;;10.88;61.34;96085.59;4225809;28;5659;-63
2023/03/11 10:25:18;;;;;;;;;;;;;;;10.92;61.24;96089.41;4233425;28;5720;-63
2023/03/11 10:27:26;;;;;;;;;;;;;;;10.93;61.14;96080.47;4219227;28;5705;-62
2023/03/11 10:29:31;;;;;;;;;;;;;;;10.93;61.14;96085.75;4234870;28;5747;-62
2023/03/11 10:31:38;;;;;;;;;;;;;;;10.92;60.99;96078.84;4226968;28;5670;-62
2023/03/11 10:33:46;;;;;;;;;;;;;;;10.93;61.25;96088.41;4218191;28;5750;-61
2023/03/11 10:35:53;;;;;;;;;;;;;;;10.93;61.04;96090.22;4229773;28;5649;-62
2023/03/11 10:38:03;;;;;;;;;;;;;;;10.94;61.23;96094.50;4231059;28;5674;-63
2023/03/11 10:40:22;;;;;;;;;;;;;;;10.88;61.03;96088.22;4226572;28;5762;-63
2023/03/11 10:42:28;;;;;;;;;;;;;;;10.90;61.24;96094.13;4226438;28;5663;-63
2023/03/11 10:44:35;;;;;;;;;;;;;;;10.88;61.14;96096.16;4234299;28;5732;-63
2023/03/11 10:46:38;;;;;;;;;;;;;;;10.92;60.96;96105.28;4222743;28;5758;-63
2023/03/11 10:48:41;;;;;;;;;;;;;;;10.88;61.25;96098.00;4234978;28;5739;-63
2023/03/11 10:50:52;;;;;;;;;;;;;;;10.89;61.05;96100.44;4229231;28;5765;-63
2023/03/11 10:53:07;;;;;;;;;;;;;;;10.94;60.93;96097.94;4226242;28;5803;-63
2023/03/11 10:55:18;;;;;;;;;;;;;;;10.96;61.29;96089.78;4228996;27;5735;-62
2023/03/11 10:57:26;;;;;;;;;;;;;;;10.96;61.26;96089.78;4223593;28;6352;-62
2023/03/11 10:59:32;;;;;;;;;;;;;;;11.01;61.15;96092.63;4229296;28;5661;-63